Time;durP1;ratioP1;P1;durP2;ratioP2;P2;SDS_P1;SDS_P2;PMS_P1;PMS_P2;Temp;Humidity;BMP_temperature;BMP_pressure;BME280_temperature;BME280_humidity;BME280_pressure;Samples;Min_cycle;Max_cycle;Signal;HPM_P1;HPM_P2
2021/07/05 00:00:54;;;;;;;1999.90;999.90;;;;;;;21.96;61.43;100387.78;15785660;28;20100;-62
2021/07/05 00:08:26;;;;;;;1999.90;999.90;;;;;;;21.84;61.81;100389.91;15787310;28;20072;-63
2021/07/05 00:16:00;;;;;;;1999.90;999.90;;;;;;;21.74;61.14;100390.00;15805168;28;20044;-63
2021/07/05 00:23:33;;;;;;;1999.90;999.90;;;;;;;21.12;63.06;100385.06;15803988;28;20365;-63
2021/07/05 00:31:07;;;;;;;1999.90;999.90;;;;;;;20.87;63.70;100388.03;15784499;28;20064;-63
2021/07/05 00:38:40;;;;;;;1999.90;999.90;;;;;;;20.93;63.10;100390.00;15784136;28;20072;-63
2021/07/05 00:46:14;;;;;;;1999.90;999.90;;;;;;;21.42;63.19;100387.38;15769913;28;20063;-62
2021/07/05 00:53:47;;;;;;;1999.90;999.90;;;;;;;21.10;63.74;100391.16;15801841;28;20040;-62
2021/07/05 01:01:20;;;;;;;1999.90;999.90;;;;;;;21.28;63.95;100386.25;15805069;28;20040;-63
2021/07/05 01:08:53;;;;;;;1999.90;999.90;;;;;;;20.93;63.93;100392.84;15797050;28;20130;-61
2021/07/05 01:16:26;;;;;;;1999.90;999.90;;;;;;;21.23;63.39;100383.78;15814305;28;20119;-61
2021/07/05 01:23:59;;;;;;;1999.90;999.90;;;;;;;20.96;63.15;100372.19;15813591;28;20048;-62
2021/07/05 01:31:34;;;;;;;1999.90;999.90;;;;;;;21.21;63.64;100372.06;15813022;28;20467;-62
2021/07/05 01:39:09;;;;;;;1999.90;999.90;;;;;;;21.17;64.19;100367.63;15777718;28;20524;-62
2021/07/05 01:46:41;;;;;;;1999.90;999.90;;;;;;;20.89;64.92;100366.53;15794722;28;20560;-62
2021/07/05 01:54:16;;;;;;;1999.90;999.90;;;;;;;20.65;66.84;100359.78;15811599;28;20036;-62
2021/07/05 02:01:48;;;;;;;1999.90;999.90;;;;;;;20.33;68.60;100357.00;15811216;28;20127;-62
2021/07/05 02:09:21;;;;;;;1999.90;999.90;;;;;;;20.13;69.10;100372.81;15811250;28;20131;-62
2021/07/05 02:16:53;;;;;;;1999.90;999.90;;;;;;;20.06;69.32;100370.78;15810563;28;20518;-62
2021/07/05 02:24:27;;;;;;;1999.90;999.90;;;;;;;20.12;67.94;100366.34;15792048;28;20150;-63
2021/07/05 02:31:59;;;;;;;1999.90;999.90;;;;;;;19.85;68.91;100379.28;15791691;28;20484;-63
2021/07/05 02:39:42;;;;;;;1999.90;999.90;;;;;;;19.98;68.90;100374.03;15790898;28;20101;-63
2021/07/05 02:47:14;;;;;;;1999.90;999.90;;;;;;;19.93;68.52;100386.59;15791674;28;20043;-63
2021/07/05 02:54:49;;;;;;;1999.90;999.90;;;;;;;19.92;68.81;100392.66;15790567;28;20048;-63
2021/07/05 03:02:21;;;;;;;1999.90;999.90;;;;;;;19.86;68.87;100387.38;15807896;28;20390;-63
2021/07/05 03:09:55;;;;;;;1999.90;999.90;;;;;;;19.82;69.73;100399.94;15772633;28;20587;-63
2021/07/05 03:17:31;;;;;;;1999.90;999.90;;;;;;;19.80;69.62;100403.16;15789187;28;20043;-63
2021/07/05 03:25:08;;;;;;;1999.90;999.90;;;;;;;19.92;69.85;100403.97;15788504;28;20098;-63
2021/07/05 03:32:41;;;;;;;1999.90;999.90;;;;;;;19.88;69.67;100398.28;15806015;28;20040;-63
2021/07/05 03:40:18;;;;;;;1999.90;999.90;;;;;;;19.65;69.96;100407.19;15805778;28;20048;-64
2021/07/05 03:47:51;;;;;;;1999.90;999.90;;;;;;;19.77;69.96;100414.47;15788004;28;20047;-63
2021/07/05 03:55:28;;;;;;;1999.90;999.90;;;;;;;19.98;69.97;100403.16;15770648;28;20588;-63
2021/07/05 04:03:04;;;;;;;1999.90;999.90;;;;;;;20.22;70.16;100418.53;15800751;28;20051;-63
2021/07/05 04:10:39;;;;;;;1999.90;999.90;;;;;;;20.45;69.27;100418.13;15803870;28;20046;-63
2021/07/05 04:18:14;;;;;;;1999.90;999.90;;;;;;;20.58;68.79;100418.50;15786021;28;20488;-63
2021/07/05 04:25:54;;;;;;;1999.90;999.90;;;;;;;20.77;68.40;100415.22;15784699;28;20071;-63
2021/07/05 04:33:31;;;;;;;1999.90;999.90;;;;;;;20.99;67.74;100401.75;15802971;28;20040;-63
2021/07/05 04:49:02;;;;;;;1999.90;999.90;;;;;;;21.51;66.55;100404.75;15740323;28;20051;-64
2021/07/05 04:56:41;;;;;;;1999.90;999.90;;;;;;;21.48;66.78;100408.44;15782626;28;20044;-62
2021/07/05 05:04:15;;;;;;;1999.90;999.90;;;;;;;22.34;64.50;100426.44;15784186;28;20417;-60
2021/07/05 05:11:48;;;;;;;1999.90;999.90;;;;;;;22.46;63.99;100428.75;15765894;28;20044;-63
2021/07/05 05:19:20;;;;;;;1999.90;999.90;;;;;;;22.51;64.15;100433.19;15783014;28;20058;-61
2021/07/05 05:26:54;;;;;;;1999.90;999.90;;;;;;;22.63;63.87;100438.34;15766183;28;20044;-62
2021/07/05 05:34:26;;;;;;;1999.90;999.90;;;;;;;22.90;64.18;100444.16;15783530;28;20401;-63
2021/07/05 05:42:00;;;;;;;1999.90;999.90;;;;;;;22.81;63.66;100443.81;15782868;28;20051;-62
2021/07/05 05:49:32;;;;;;;1999.90;999.90;;;;;;;22.63;63.70;100443.22;15806736;28;20117;-64
2021/07/05 05:57:06;;;;;;;1999.90;999.90;;;;;;;22.66;65.17;100448.06;15794283;28;20063;-63
2021/07/05 06:04:38;;;;;;;1999.90;999.90;;;;;;;22.34;65.46;100445.53;15812393;28;20044;-62
2021/07/05 06:12:12;;;;;;;1999.90;999.90;;;;;;;22.63;65.70;100448.91;15794654;28;20071;-62
2021/07/05 06:19:44;;;;;;;1999.90;999.90;;;;;;;22.61;65.78;100460.69;15793286;28;20054;-62
2021/07/05 06:27:20;;;;;;;1999.90;999.90;;;;;;;22.54;65.91;100471.34;15812351;28;20107;-59
2021/07/05 06:34:52;;;;;;;1999.90;999.90;;;;;;;22.11;66.24;100483.09;15775074;28;20044;-62
2021/07/05 06:42:26;;;;;;;1999.90;999.90;;;;;;;21.63;67.46;100483.75;15792696;28;20534;-62
2021/07/05 06:49:58;;;;;;;1999.90;999.90;;;;;;;21.77;69.53;100495.03;15791295;28;20052;-63
2021/07/05 06:57:33;;;;;;;1999.90;999.90;;;;;;;21.74;71.85;100498.69;15809330;28;20048;-58
2021/07/05 07:05:07;;;;;;;1999.90;999.90;;;;;;;21.25;74.70;100502.56;15809039;28;20043;-62
2021/07/05 07:12:45;;;;;;;1999.90;999.90;;;;;;;21.21;75.67;100521.63;15790216;28;20040;-63
2021/07/05 07:20:17;;;;;;;1999.90;999.90;;;;;;;21.60;76.56;100519.47;15807410;28;20127;-63
2021/07/05 07:27:52;;;;;;;;;;;;;;;21.75;78.20;100525.06;15807966;28;20051;-61
2021/07/05 07:35:24;;;;;;;1999.90;999.90;;;;;;;21.56;77.91;100515.00;15788328;28;19920;-64
2021/07/05 07:42:58;;;;;;;;;;;;;;;21.96;77.70;100526.97;15790389;28;20113;-60
2021/07/05 07:50:30;;;;;;;1999.90;999.90;;;;;;;21.95;77.61;100517.66;15787840;28;20324;-59
2021/07/05 07:58:04;;;;;;;1999.90;999.90;;;;;;;22.18;77.46;100517.91;15787133;28;20050;-62
2021/07/05 08:05:36;;;;;;;1999.90;999.90;;;;;;;22.23;76.29;100519.50;15787416;28;20059;-61
2021/07/05 08:13:13;;;;;;;1999.90;999.90;;;;;;;22.37;75.28;100518.59;15806536;28;20504;-62
2021/07/05 08:20:55;;;;;;;1999.90;999.90;;;;;;;22.42;75.36;100512.47;15788132;28;20081;-60
2021/07/05 08:28:48;;;;;;;1999.90;999.90;;;;;;;22.60;75.59;100513.09;15789027;28;20404;-60
2021/07/05 08:36:40;;;;;;;1999.90;999.90;;;;;;;22.19;75.31;100518.72;15803051;28;20051;-63
2021/07/05 08:44:19;;;;;;;1999.90;999.90;;;;;;;22.37;74.70;100524.28;15803072;28;20044;-61
2021/07/05 08:51:59;;;;;;;1999.90;999.90;;;;;;;22.40;75.52;100534.78;15784105;28;20060;-61
2021/07/05 08:59:37;;;;;;;1999.90;999.90;;;;;;;22.17;74.42;100526.84;15802172;28;20074;-60
2021/07/05 09:07:12;;;;;;;1999.90;999.90;;;;;;;22.54;75.69;100540.38;15785435;28;20123;-60
2021/07/05 09:15:04;;;;;;;1999.90;999.90;;;;;;;22.82;73.51;100533.59;15784587;28;20040;-63
2021/07/05 09:22:36;;;;;;;1999.90;999.90;;;;;;;22.10;74.64;100543.97;15806016;28;20051;-63
2021/07/05 09:30:11;;;;;;;1999.90;999.90;;;;;;;22.66;76.11;100541.91;15796439;28;20044;-61
2021/07/05 09:37:51;;;;;;;1999.90;999.90;;;;;;;22.59;73.74;100553.31;15814269;28;20036;-60
2021/07/05 09:45:32;;;;;;;1999.90;999.90;;;;;;;22.74;74.84;100544.25;15795475;28;20042;-63
2021/07/05 09:53:26;;;;;;;1999.90;999.90;;;;;;;23.25;66.82;100536.84;15793886;28;20044;-62
2021/07/05 10:00:59;;;;;;;1999.90;999.90;;;;;;;22.94;70.97;100518.91;15794612;28;20044;-63
2021/07/05 10:08:31;;;;;;;1999.90;999.90;;;;;;;21.80;71.40;100544.53;15794320;28;20048;-60
2021/07/05 10:16:10;;;;;;;1999.90;999.90;;;;;;;21.85;73.49;100530.69;15793594;28;20043;-61
2021/07/05 10:23:42;;;;;;;1999.90;999.90;;;;;;;22.37;72.44;100535.66;15811780;28;20047;-60
2021/07/05 10:31:17;;;;;;;1999.90;999.90;;;;;;;22.39;72.61;100527.50;15793174;28;20048;-60
2021/07/05 10:38:52;;;;;;;1999.90;999.90;;;;;;;22.70;71.09;100539.81;15851240;22;20047;-75
2021/07/05 10:46:41;;;;;;;1999.90;999.90;;;;;;;22.62;70.53;100533.41;15862815;22;20024;-65
2021/07/05 10:54:44;;;;;;;1999.90;999.90;;;;;;;22.64;71.04;100547.22;15787688;28;20093;-63
2021/07/05 11:02:45;;;;;;;1999.90;999.90;;;;;;;24.04;67.67;100547.25;15743541;28;20110;-63
2021/07/05 11:10:24;;;;;;;1999.90;999.90;;;;;;;24.53;64.93;100550.59;15666468;28;20056;-63
2021/07/05 11:17:57;;;;;;;1999.90;999.90;;;;;;;24.54;63.41;100543.66;15722906;28;20044;-64
2021/07/05 11:25:30;;;;;;;1999.90;999.90;;;;;;;26.06;61.72;100528.41;15722415;28;20066;-64
2021/07/05 11:33:24;;;;;;;1999.90;999.90;;;;;;;27.32;55.18;100523.97;15739396;28;20414;-64
2021/07/05 11:40:59;;;;;;;1999.90;999.90;;;;;;;27.27;54.39;100524.50;15721458;28;20078;-64
2021/07/05 11:48:58;;;;;;;1999.90;999.90;;;;;;;28.45;50.41;100527.47;15737804;28;20186;-63
2021/07/05 11:56:37;;;;;;;1999.90;999.90;;;;;;;26.49;56.41;100513.09;15701967;28;20045;-64
2021/07/05 12:04:11;;;;;;;1999.90;999.90;;;;;;;26.60;55.18;100505.03;15737255;28;20086;-64
2021/07/05 12:11:45;;;;;;;1999.90;999.90;;;;;;;27.01;53.66;100495.75;15736462;28;20353;-64
2021/07/05 12:19:19;;;;;;;1999.90;999.90;;;;;;;27.80;51.35;100500.03;15717751;28;20477;-64
2021/07/05 12:26:54;;;;;;;1999.90;999.90;;;;;;;27.98;49.17;100484.34;15717483;28;20094;-65
2021/07/05 12:34:38;;;;;;;1999.90;999.90;;;;;;;27.21;50.83;100474.78;15735181;28;20049;-65
2021/07/05 12:42:25;;;;;;;1999.90;999.90;;;;;;;28.48;47.27;100476.97;15717415;28;20066;-65
2021/07/05 12:49:59;;;;;;;1999.90;999.90;;;;;;;28.30;48.61;100481.25;15734774;28;20040;-64
2021/07/05 12:57:31;;;;;;;1999.90;999.90;;;;;;;29.07;45.56;100469.56;15733633;28;20067;-64
2021/07/05 13:05:09;;;;;;;1999.90;999.90;;;;;;;27.43;48.22;100469.22;15734561;28;20044;-64
2021/07/05 13:12:53;;;;;;;1999.90;999.90;;;;;;;28.15;46.87;100466.56;15699761;28;20052;-65
2021/07/05 13:20:27;;;;;;;1999.90;999.90;;;;;;;27.60;49.72;100462.94;15733935;28;20049;-64
2021/07/05 13:28:13;;;;;;;1999.90;999.90;;;;;;;28.02;48.78;100462.06;15715790;28;20404;-65
2021/07/05 13:35:47;;;;;;;1999.90;999.90;;;;;;;27.20;48.05;100453.13;15716068;28;20098;-63
2021/07/05 13:43:26;;;;;;;1999.90;999.90;;;;;;;26.97;48.67;100454.97;15733195;28;20048;-65
2021/07/05 13:51:06;;;;;;;1999.90;999.90;;;;;;;27.32;49.16;100447.44;15715783;28;20048;-65
2021/07/05 13:58:40;;;;;;;1999.90;999.90;;;;;;;27.61;46.65;100458.81;15732485;28;20067;-64
2021/07/05 14:06:16;;;;;;;1999.90;999.90;;;;;;;26.67;47.30;100455.41;15733127;28;20075;-64
2021/07/05 14:13:52;;;;;;;1999.90;999.90;;;;;;;27.23;48.39;100449.38;15725763;28;20051;-62
2021/07/05 14:21:27;;;;;;;1999.90;999.90;;;;;;;27.79;44.07;100429.63;15727282;28;20044;-62
2021/07/05 14:29:00;;;;;;;1999.90;999.90;;;;;;;27.74;43.34;100438.81;15775663;28;20091;-64
2021/07/05 14:36:33;;;;;;;1999.90;999.90;;;;;;;27.77;42.07;100435.03;15798731;28;20052;-66
2021/07/05 14:44:05;;;;;;;1999.90;999.90;;;;;;;27.14;43.94;100426.31;15803854;28;20101;-65
2021/07/05 14:51:39;;;;;;;1999.90;999.90;;;;;;;26.97;43.92;100432.06;15803535;28;20070;-65
2021/07/05 14:59:11;;;;;;;1999.90;999.90;;;;;;;27.17;42.86;100434.78;15784195;28;20040;-65
2021/07/05 15:06:46;;;;;;;1999.90;999.90;;;;;;;27.27;42.32;100439.41;15785612;28;20046;-65
2021/07/05 15:14:18;;;;;;;1999.90;999.90;;;;;;;27.30;43.71;100441.38;15802422;28;20040;-66
2021/07/05 15:21:53;;;;;;;1999.90;999.90;;;;;;;26.55;47.48;100461.84;15801979;28;20044;-65
2021/07/05 15:29:25;;;;;;;1999.90;999.90;;;;;;;26.09;49.58;100453.19;15801429;28;20044;-63
2021/07/05 15:36:59;;;;;;;1999.90;999.90;;;;;;;26.37;49.29;100462.34;15782153;28;20071;-64
2021/07/05 15:44:31;;;;;;;1999.90;999.90;;;;;;;26.98;48.62;100453.69;15800566;28;20056;-63
2021/07/05 15:52:05;;;;;;;1999.90;999.90;;;;;;;26.31;45.92;100453.44;15781958;28;20048;-62
2021/07/05 15:59:37;;;;;;;1999.90;999.90;;;;;;;26.00;46.37;100469.34;15799263;28;20132;-62
2021/07/05 16:07:11;;;;;;;1999.90;999.90;;;;;;;25.89;46.21;100466.75;15781621;28;20086;-62
2021/07/05 16:14:43;;;;;;;1999.90;999.90;;;;;;;25.93;47.61;100480.94;15763588;28;20058;-63
2021/07/05 16:22:17;;;;;;;1999.90;999.90;;;;;;;25.70;47.70;100488.41;15798783;28;20078;-63
2021/07/05 16:29:49;;;;;;;1999.90;999.90;;;;;;;25.87;47.35;100480.69;15798004;28;20101;-64
2021/07/05 16:37:23;;;;;;;;;;;;;;;25.85;47.44;100478.28;15807475;22;20050;-61
2021/07/05 16:44:55;;;;;;;1999.90;999.90;;;;;;;25.94;48.03;100491.13;15860034;27;19926;-61
2021/07/05 16:52:31;;;;;;;1999.90;999.90;;;;;;;25.51;47.84;100483.50;15892306;27;20561;-60
2021/07/05 17:00:07;;;;;;;1999.90;999.90;;;;;;;25.87;47.79;100487.19;15890261;27;20040;-63
2021/07/05 17:07:40;;;;;;;1999.90;999.90;;;;;;;25.87;48.49;100487.19;15847824;28;20055;-61
2021/07/05 17:15:13;;;;;;;1999.90;999.90;;;;;;;25.43;48.19;100496.31;15868874;28;20044;-61
2021/07/05 17:22:47;;;;;;;1999.90;999.90;;;;;;;25.49;48.95;100486.00;15842538;28;20462;-61
2021/07/05 17:30:20;;;;;;;1999.90;999.90;;;;;;;25.45;49.95;100491.78;15866535;28;20043;-62
2021/07/05 17:37:54;;;;;;;1999.90;999.90;;;;;;;25.44;50.44;100492.22;15901464;28;20089;-62
2021/07/05 17:45:27;;;;;;;1999.90;999.90;;;;;;;25.29;50.93;100505.97;15900625;27;20042;-61
2021/07/05 17:53:01;;;;;;;1999.90;999.90;;;;;;;25.41;49.88;100513.09;15931025;27;20570;-61
2021/07/05 18:00:33;;;;;;;1999.90;999.90;;;;;;;25.43;51.36;100527.72;15888646;27;20035;-62
2021/07/05 18:08:07;;;;;;;1999.90;999.90;;;;;;;25.38;51.45;100526.19;15919655;27;20035;-62
2021/07/05 18:15:42;;;;;;;1999.90;999.90;;;;;;;25.15;51.64;100538.50;15889079;27;20418;-62
2021/07/05 18:23:15;;;;;;;1999.90;999.90;;;;;;;25.12;52.60;100547.94;15902534;27;20055;-60
2021/07/05 18:30:50;;;;;;;1999.90;999.90;;;;;;;25.10;53.67;100538.19;15890085;27;20058;-59
2021/07/05 18:38:26;;;;;;;1999.90;999.90;;;;;;;24.96;53.91;100544.94;15909811;27;20518;-62
2021/07/05 18:45:58;;;;;;;1999.90;999.90;;;;;;;24.71;55.42;100553.97;15937157;27;20035;-57
2021/07/05 18:53:32;;;;;;;1999.90;999.90;;;;;;;24.46;56.88;100555.16;15870293;28;20067;-60
2021/07/05 19:01:04;;;;;;;1999.90;999.90;;;;;;;24.26;58.14;100561.97;15869059;27;20097;-58
2021/07/05 19:08:38;;;;;;;;;;;;;;;24.32;59.53;100566.81;15857567;27;20039;-62
2021/07/05 19:16:10;;;;;;;1999.90;999.90;;;;;;;23.85;58.16;100571.53;15933318;27;19930;-59
2021/07/05 19:23:44;;;;;;;1999.90;999.90;;;;;;;24.00;58.71;100581.50;15872928;27;20074;-60
2021/07/05 19:31:16;;;;;;;1999.90;999.90;;;;;;;24.01;58.22;100590.84;15907992;27;20044;-62
2021/07/05 19:39:09;;;;;;;1999.90;999.90;;;;;;;24.02;60.29;100603.88;15903104;27;20032;-59
2021/07/05 19:46:41;;;;;;;1999.90;999.90;;;;;;;23.69;59.33;100608.38;15904822;27;20050;-59
2021/07/05 19:54:15;;;;;;;1999.90;999.90;;;;;;;23.58;59.69;100620.69;15876364;27;20122;-60
2021/07/05 20:01:47;;;;;;;1999.90;999.90;;;;;;;23.58;59.67;100632.09;15887225;27;20048;-63
2021/07/05 20:09:21;;;;;;;1999.90;999.90;;;;;;;23.68;60.67;100635.25;15875521;27;20470;-63
2021/07/05 20:16:53;;;;;;;1999.90;999.90;;;;;;;23.37;60.79;100638.00;15930187;27;20039;-62
2021/07/05 20:24:26;;;;;;;1999.90;999.90;;;;;;;23.52;60.72;100642.28;15882592;27;20126;-63
2021/07/05 20:31:59;;;;;;;1999.90;999.90;;;;;;;23.53;60.53;100635.34;15865458;28;20043;-62
2021/07/05 20:39:32;;;;;;;1999.90;999.90;;;;;;;23.38;62.06;100624.56;15858020;27;20374;-61
2021/07/05 20:47:04;;;;;;;1999.90;999.90;;;;;;;23.03;62.83;100637.88;15907556;27;20536;-59
2021/07/05 20:54:38;;;;;;;1999.90;999.90;;;;;;;23.19;62.83;100635.31;15869037;27;20122;-60
2021/07/05 21:02:11;;;;;;;1999.90;999.90;;;;;;;23.26;62.44;100634.44;15871152;27;20043;-60
2021/07/05 21:09:44;;;;;;;1999.90;999.90;;;;;;;23.05;64.59;100629.78;15873740;28;20491;-58
2021/07/05 21:17:18;;;;;;;1999.90;999.90;;;;;;;22.94;64.65;100634.75;15875120;27;20036;-61
2021/07/05 21:24:51;;;;;;;1999.90;999.90;;;;;;;22.89;65.61;100633.16;15878355;27;20074;-56
2021/07/05 21:32:24;;;;;;;1999.90;999.90;;;;;;;22.55;68.00;100630.13;15920258;27;20043;-60
2021/07/05 21:39:58;;;;;;;1999.90;999.90;;;;;;;22.39;67.46;100629.81;15878406;27;20074;-58
2021/07/05 21:47:32;;;;;;;1999.90;999.90;;;;;;;22.45;68.38;100616.81;15897870;27;20050;-60
2021/07/05 21:55:06;;;;;;;1999.90;999.90;;;;;;;22.47;68.33;100628.56;15904910;27;20047;-61
2021/07/05 22:02:39;;;;;;;1999.90;999.90;;;;;;;22.32;67.95;100625.03;15919228;27;20047;-60
2021/07/05 22:10:15;;;;;;;1999.90;999.90;;;;;;;22.45;67.63;100636.72;15891529;27;20035;-60
2021/07/05 22:17:47;;;;;;;1999.90;999.90;;;;;;;22.39;67.96;100644.84;15877993;27;20427;-58
2021/07/05 22:25:21;;;;;;;1999.90;999.90;;;;;;;22.36;68.45;100640.00;15870202;27;20081;-61
2021/07/05 22:32:56;;;;;;;1999.90;999.90;;;;;;;21.95;70.38;100628.44;15938321;27;20105;-60
2021/07/05 22:40:48;;;;;;;1999.90;999.90;;;;;;;21.96;70.44;100635.72;15878691;22;20054;-61
2021/07/05 22:48:20;;;;;;;1999.90;999.90;;;;;;;21.98;69.38;100632.47;15778267;28;20101;-61
2021/07/05 22:55:53;;;;;;;1999.90;999.90;;;;;;;21.95;70.52;100639.78;15784421;28;20071;-60
2021/07/05 23:03:26;;;;;;;1999.90;999.90;;;;;;;21.86;69.36;100637.38;15784039;28;20055;-60
2021/07/05 23:11:00;;;;;;;1999.90;999.90;;;;;;;21.42;69.87;100643.63;15799385;28;20139;-61
2021/07/05 23:18:32;;;;;;;1999.90;999.90;;;;;;;21.60;70.41;100638.72;15781573;28;20101;-60
2021/07/05 23:26:05;;;;;;;1999.90;999.90;;;;;;;21.64;70.27;100635.84;15801842;28;20142;-61
2021/07/05 23:33:37;;;;;;;1999.90;999.90;;;;;;;21.30;71.85;100633.50;15782649;28;20142;-61
2021/07/05 23:41:11;;;;;;;1999.90;999.90;;;;;;;21.55;70.11;100630.59;15782308;28;20446;-61
2021/07/05 23:48:43;;;;;;;1999.90;999.90;;;;;;;21.19;71.58;100627.03;15764443;28;20101;-61
2021/07/05 23:56:16;;;;;;;1999.90;999.90;;;;;;;21.24;71.79;100631.47;15800107;28;20495;-61
